sensor_id;sensor_type;location;lat;lon;timestamp;temperature;humidity
4107;DHT22;21906;50.812;7.132;2022-11-20T00:00:09;5.90;67.30
4107;DHT22;21906;50.812;7.132;2022-11-20T00:02:35;5.90;67.60
4107;DHT22;21906;50.812;7.132;2022-11-20T00:05:01;6.00;67.50
4107;DHT22;21906;50.812;7.132;2022-11-20T00:07:26;6.00;67.50
4107;DHT22;21906;50.812;7.132;2022-11-20T00:09:52;6.10;67.10
4107;DHT22;21906;50.812;7.132;2022-11-20T00:12:18;6.10;67.00
4107;DHT22;21906;50.812;7.132;2022-11-20T00:14:43;6.20;66.70
4107;DHT22;21906;50.812;7.132;2022-11-20T00:17:09;6.20;66.60
4107;DHT22;21906;50.812;7.132;2022-11-20T00:19:35;6.30;66.50
4107;DHT22;21906;50.812;7.132;2022-11-20T00:22:00;6.30;66.20
4107;DHT22;21906;50.812;7.132;2022-11-20T00:24:26;6.40;66.30
4107;DHT22;21906;50.812;7.132;2022-11-20T00:26:51;6.40;66.30
4107;DHT22;21906;50.812;7.132;2022-11-20T00:29:17;6.40;66.40
4107;DHT22;21906;50.812;7.132;2022-11-20T00:31:42;6.30;66.30
4107;DHT22;21906;50.812;7.132;2022-11-20T00:34:09;6.40;66.60
4107;DHT22;21906;50.812;7.132;2022-11-20T00:36:35;6.40;66.30
4107;DHT22;21906;50.812;7.132;2022-11-20T00:39:01;6.40;66.20
4107;DHT22;21906;50.812;7.132;2022-11-20T00:41:28;6.20;65.40
4107;DHT22;21906;50.812;7.132;2022-11-20T00:43:55;6.20;66.60
4107;DHT22;21906;50.812;7.132;2022-11-20T00:46:25;6.20;66.40
4107;DHT22;21906;50.812;7.132;2022-11-20T00:48:51;6.00;67.40
4107;DHT22;21906;50.812;7.132;2022-11-20T00:51:19;6.00;67.40
4107;DHT22;21906;50.812;7.132;2022-11-20T00:53:45;6.10;67.30
4107;DHT22;21906;50.812;7.132;2022-11-20T00:56:14;6.10;67.10
4107;DHT22;21906;50.812;7.132;2022-11-20T00:58:41;6.20;66.70
4107;DHT22;21906;50.812;7.132;2022-11-20T01:03:36;6.20;66.60
4107;DHT22;21906;50.812;7.132;2022-11-20T01:06:07;6.20;66.30
4107;DHT22;21906;50.812;7.132;2022-11-20T01:08:35;6.20;66.50
4107;DHT22;21906;50.812;7.132;2022-11-20T01:11:07;6.20;66.60
4107;DHT22;21906;50.812;7.132;2022-11-20T01:13:33;6.10;66.90
4107;DHT22;21906;50.812;7.132;2022-11-20T01:16:19;6.00;67.20
4107;DHT22;21906;50.812;7.132;2022-11-20T01:18:48;6.20;66.90
4107;DHT22;21906;50.812;7.132;2022-11-20T01:21:19;6.20;66.80
4107;DHT22;21906;50.812;7.132;2022-11-20T01:23:46;6.20;66.70
4107;DHT22;21906;50.812;7.132;2022-11-20T01:26:14;6.10;66.60
4107;DHT22;21906;50.812;7.132;2022-11-20T01:28:41;6.10;66.70
4107;DHT22;21906;50.812;7.132;2022-11-20T01:31:20;6.00;67.10
4107;DHT22;21906;50.812;7.132;2022-11-20T01:33:47;6.10;67.10
4107;DHT22;21906;50.812;7.132;2022-11-20T01:36:14;6.10;66.70
4107;DHT22;21906;50.812;7.132;2022-11-20T01:38:40;6.00;67.30
4107;DHT22;21906;50.812;7.132;2022-11-20T01:41:06;6.10;67.10
4107;DHT22;21906;50.812;7.132;2022-11-20T01:43:32;6.10;67.10
4107;DHT22;21906;50.812;7.132;2022-11-20T01:46:13;6.10;66.50
4107;DHT22;21906;50.812;7.132;2022-11-20T01:48:47;5.90;66.90
4107;DHT22;21906;50.812;7.132;2022-11-20T01:53:48;6.00;67.00
4107;DHT22;21906;50.812;7.132;2022-11-20T01:56:15;6.00;67.10
4107;DHT22;21906;50.812;7.132;2022-11-20T01:58:51;6.00;68.10
4107;DHT22;21906;50.812;7.132;2022-11-20T02:01:17;6.00;67.80
4107;DHT22;21906;50.812;7.132;2022-11-20T02:03:43;6.20;67.30
4107;DHT22;21906;50.812;7.132;2022-11-20T02:06:18;6.20;67.00
4107;DHT22;21906;50.812;7.132;2022-11-20T02:08:44;6.20;67.00
4107;DHT22;21906;50.812;7.132;2022-11-20T02:11:10;6.30;66.90
4107;DHT22;21906;50.812;7.132;2022-11-20T02:13:38;6.30;66.40
4107;DHT22;21906;50.812;7.132;2022-11-20T02:18:50;6.30;66.30
4107;DHT22;21906;50.812;7.132;2022-11-20T02:21:51;6.30;66.40
4107;DHT22;21906;50.812;7.132;2022-11-20T02:24:22;6.10;66.80
4107;DHT22;21906;50.812;7.132;2022-11-20T02:27:09;6.20;66.80
4107;DHT22;21906;50.812;7.132;2022-11-20T02:30:04;6.20;66.70
4107;DHT22;21906;50.812;7.132;2022-11-20T02:32:34;6.10;67.20
4107;DHT22;21906;50.812;7.132;2022-11-20T02:37:48;6.00;67.70
4107;DHT22;21906;50.812;7.132;2022-11-20T02:45:26;6.10;67.60
4107;DHT22;21906;50.812;7.132;2022-11-20T02:47:52;6.10;67.30
4107;DHT22;21906;50.812;7.132;2022-11-20T02:50:18;6.10;67.30
4107;DHT22;21906;50.812;7.132;2022-11-20T02:52:43;6.10;67.30
4107;DHT22;21906;50.812;7.132;2022-11-20T02:55:09;6.10;67.50
4107;DHT22;21906;50.812;7.132;2022-11-20T02:57:35;6.10;67.60
4107;DHT22;21906;50.812;7.132;2022-11-20T03:00:03;6.20;67.60
4107;DHT22;21906;50.812;7.132;2022-11-20T03:02:32;6.20;67.90
4107;DHT22;21906;50.812;7.132;2022-11-20T03:04:58;6.00;68.10
4107;DHT22;21906;50.812;7.132;2022-11-20T03:07:24;6.10;68.10
4107;DHT22;21906;50.812;7.132;2022-11-20T03:09:50;6.00;67.90
4107;DHT22;21906;50.812;7.132;2022-11-20T03:12:15;5.90;68.20
4107;DHT22;21906;50.812;7.132;2022-11-20T03:14:41;6.10;68.20
4107;DHT22;21906;50.812;7.132;2022-11-20T03:17:07;6.10;68.20
4107;DHT22;21906;50.812;7.132;2022-11-20T03:19:33;6.10;68.00
4107;DHT22;21906;50.812;7.132;2022-11-20T03:21:59;6.20;68.00
4107;DHT22;21906;50.812;7.132;2022-11-20T03:24:25;6.20;67.70
4107;DHT22;21906;50.812;7.132;2022-11-20T03:26:51;6.20;67.60
4107;DHT22;21906;50.812;7.132;2022-11-20T03:29:17;6.30;67.60
4107;DHT22;21906;50.812;7.132;2022-11-20T03:31:42;6.30;67.60
4107;DHT22;21906;50.812;7.132;2022-11-20T03:34:10;6.30;67.50
4107;DHT22;21906;50.812;7.132;2022-11-20T03:36:41;6.40;67.40
4107;DHT22;21906;50.812;7.132;2022-11-20T03:39:07;6.40;67.40
4107;DHT22;21906;50.812;7.132;2022-11-20T03:41:40;6.40;67.30
4107;DHT22;21906;50.812;7.132;2022-11-20T03:44:08;6.40;67.10
4107;DHT22;21906;50.812;7.132;2022-11-20T03:46:34;6.40;67.20
4107;DHT22;21906;50.812;7.132;2022-11-20T03:49:00;6.40;67.30
4107;DHT22;21906;50.812;7.132;2022-11-20T03:51:28;6.40;67.30
4107;DHT22;21906;50.812;7.132;2022-11-20T03:53:56;6.40;67.40
4107;DHT22;21906;50.812;7.132;2022-11-20T03:56:24;6.40;67.60
4107;DHT22;21906;50.812;7.132;2022-11-20T03:58:50;6.40;67.60
4107;DHT22;21906;50.812;7.132;2022-11-20T04:01:28;6.30;67.50
4107;DHT22;21906;50.812;7.132;2022-11-20T04:03:55;6.40;67.40
4107;DHT22;21906;50.812;7.132;2022-11-20T04:06:27;6.30;67.70
4107;DHT22;21906;50.812;7.132;2022-11-20T04:08:59;6.40;67.90
4107;DHT22;21906;50.812;7.132;2022-11-20T04:11:28;6.30;68.10
4107;DHT22;21906;50.812;7.132;2022-11-20T04:13:56;6.30;68.20
4107;DHT22;21906;50.812;7.132;2022-11-20T04:16:23;6.40;68.20
4107;DHT22;21906;50.812;7.132;2022-11-20T04:18:57;6.30;68.10
4107;DHT22;21906;50.812;7.132;2022-11-20T04:21:24;6.30;68.20
4107;DHT22;21906;50.812;7.132;2022-11-20T04:23:50;6.20;68.50
4107;DHT22;21906;50.812;7.132;2022-11-20T04:26:18;6.30;68.50
4107;DHT22;21906;50.812;7.132;2022-11-20T04:28:44;6.30;68.50
4107;DHT22;21906;50.812;7.132;2022-11-20T04:31:15;6.30;68.30
4107;DHT22;21906;50.812;7.132;2022-11-20T04:33:41;6.30;68.30
4107;DHT22;21906;50.812;7.132;2022-11-20T04:38:43;6.20;68.90
4107;DHT22;21906;50.812;7.132;2022-11-20T04:41:20;6.20;69.00
4107;DHT22;21906;50.812;7.132;2022-11-20T04:43:47;6.20;68.80
4107;DHT22;21906;50.812;7.132;2022-11-20T04:46:14;6.30;68.90
4107;DHT22;21906;50.812;7.132;2022-11-20T04:48:40;6.30;69.10
4107;DHT22;21906;50.812;7.132;2022-11-20T04:51:06;6.30;69.10
4107;DHT22;21906;50.812;7.132;2022-11-20T04:53:31;6.30;69.00
4107;DHT22;21906;50.812;7.132;2022-11-20T04:56:05;6.40;69.00
4107;DHT22;21906;50.812;7.132;2022-11-20T04:58:31;6.30;69.00
4107;DHT22;21906;50.812;7.132;2022-11-20T05:01:14;6.30;68.90
4107;DHT22;21906;50.812;7.132;2022-11-20T05:03:41;6.40;68.90
4107;DHT22;21906;50.812;7.132;2022-11-20T05:06:08;6.40;68.90
4107;DHT22;21906;50.812;7.132;2022-11-20T05:08:34;6.30;68.80
4107;DHT22;21906;50.812;7.132;2022-11-20T05:11:08;6.30;68.90
4107;DHT22;21906;50.812;7.132;2022-11-20T05:13:34;6.30;68.90
4107;DHT22;21906;50.812;7.132;2022-11-20T05:16:05;6.30;69.00
4107;DHT22;21906;50.812;7.132;2022-11-20T05:18:31;6.30;69.10
4107;DHT22;21906;50.812;7.132;2022-11-20T05:20:58;6.30;69.10
4107;DHT22;21906;50.812;7.132;2022-11-20T05:23:25;6.30;69.20
4107;DHT22;21906;50.812;7.132;2022-11-20T05:25:54;6.30;69.20
4107;DHT22;21906;50.812;7.132;2022-11-20T05:28:20;6.30;69.10
4107;DHT22;21906;50.812;7.132;2022-11-20T05:30:46;6.30;69.10
4107;DHT22;21906;50.812;7.132;2022-11-20T05:33:12;6.30;69.20
4107;DHT22;21906;50.812;7.132;2022-11-20T05:35:37;6.20;69.40
4107;DHT22;21906;50.812;7.132;2022-11-20T05:38:03;6.20;69.40
4107;DHT22;21906;50.812;7.132;2022-11-20T05:40:28;6.20;69.70
4107;DHT22;21906;50.812;7.132;2022-11-20T05:42:54;6.10;69.90
4107;DHT22;21906;50.812;7.132;2022-11-20T05:45:20;6.10;70.00
4107;DHT22;21906;50.812;7.132;2022-11-20T05:47:45;6.10;70.20
4107;DHT22;21906;50.812;7.132;2022-11-20T05:50:11;6.00;70.70
4107;DHT22;21906;50.812;7.132;2022-11-20T05:52:37;6.00;70.60
4107;DHT22;21906;50.812;7.132;2022-11-20T05:55:03;6.10;70.60
4107;DHT22;21906;50.812;7.132;2022-11-20T05:57:28;6.20;70.60
4107;DHT22;21906;50.812;7.132;2022-11-20T05:59:54;6.00;70.80
4107;DHT22;21906;50.812;7.132;2022-11-20T06:02:19;5.80;71.50
4107;DHT22;21906;50.812;7.132;2022-11-20T06:04:45;5.80;71.50
4107;DHT22;21906;50.812;7.132;2022-11-20T06:07:11;5.90;71.70
4107;DHT22;21906;50.812;7.132;2022-11-20T06:09:36;5.80;71.40
4107;DHT22;21906;50.812;7.132;2022-11-20T06:12:02;5.70;71.60
4107;DHT22;21906;50.812;7.132;2022-11-20T06:14:28;5.80;71.60
4107;DHT22;21906;50.812;7.132;2022-11-20T06:16:53;5.70;71.60
4107;DHT22;21906;50.812;7.132;2022-11-20T06:19:19;5.80;71.60
4107;DHT22;21906;50.812;7.132;2022-11-20T06:21:45;5.80;71.50
4107;DHT22;21906;50.812;7.132;2022-11-20T06:24:12;5.80;71.60
4107;DHT22;21906;50.812;7.132;2022-11-20T06:26:38;5.80;71.50
4107;DHT22;21906;50.812;7.132;2022-11-20T06:29:04;5.90;71.60
4107;DHT22;21906;50.812;7.132;2022-11-20T06:31:29;5.90;71.50
4107;DHT22;21906;50.812;7.132;2022-11-20T06:33:58;5.90;71.70
4107;DHT22;21906;50.812;7.132;2022-11-20T06:36:23;5.60;72.50
4107;DHT22;21906;50.812;7.132;2022-11-20T06:38:49;5.60;72.50
4107;DHT22;21906;50.812;7.132;2022-11-20T06:41:20;5.80;72.30
4107;DHT22;21906;50.812;7.132;2022-11-20T06:43:46;5.90;71.90
4107;DHT22;21906;50.812;7.132;2022-11-20T06:46:12;5.80;71.90
4107;DHT22;21906;50.812;7.132;2022-11-20T06:48:39;5.90;71.60
4107;DHT22;21906;50.812;7.132;2022-11-20T06:51:06;5.90;71.70
4107;DHT22;21906;50.812;7.132;2022-11-20T06:53:32;6.00;71.40
4107;DHT22;21906;50.812;7.132;2022-11-20T06:55:59;6.10;71.20
4107;DHT22;21906;50.812;7.132;2022-11-20T06:58:29;6.10;71.00
4107;DHT22;21906;50.812;7.132;2022-11-20T07:00:59;6.00;70.80
4107;DHT22;21906;50.812;7.132;2022-11-20T07:03:25;5.90;71.00
4107;DHT22;21906;50.812;7.132;2022-11-20T07:05:51;5.90;70.90
4107;DHT22;21906;50.812;7.132;2022-11-20T07:08:16;6.00;70.90
4107;DHT22;21906;50.812;7.132;2022-11-20T07:10:42;6.10;71.00
4107;DHT22;21906;50.812;7.132;2022-11-20T07:13:08;6.20;70.70
4107;DHT22;21906;50.812;7.132;2022-11-20T07:15:33;6.20;70.60
4107;DHT22;21906;50.812;7.132;2022-11-20T07:17:59;6.30;70.30
4107;DHT22;21906;50.812;7.132;2022-11-20T07:20:25;6.30;70.30
4107;DHT22;21906;50.812;7.132;2022-11-20T07:22:54;6.30;70.40
4107;DHT22;21906;50.812;7.132;2022-11-20T07:25:21;6.30;70.50
4107;DHT22;21906;50.812;7.132;2022-11-20T07:27:47;6.30;70.50
4107;DHT22;21906;50.812;7.132;2022-11-20T07:30:14;6.30;70.60
4107;DHT22;21906;50.812;7.132;2022-11-20T07:32:40;6.40;70.60
4107;DHT22;21906;50.812;7.132;2022-11-20T07:35:06;6.40;70.30
4107;DHT22;21906;50.812;7.132;2022-11-20T07:37:34;6.40;70.30
4107;DHT22;21906;50.812;7.132;2022-11-20T07:40:00;6.40;70.30
4107;DHT22;21906;50.812;7.132;2022-11-20T07:42:25;6.40;70.40
4107;DHT22;21906;50.812;7.132;2022-11-20T07:44:51;6.50;70.40
4107;DHT22;21906;50.812;7.132;2022-11-20T07:47:17;6.50;70.40
4107;DHT22;21906;50.812;7.132;2022-11-20T07:49:42;6.60;70.30
4107;DHT22;21906;50.812;7.132;2022-11-20T07:52:08;6.50;70.30
4107;DHT22;21906;50.812;7.132;2022-11-20T07:54:33;6.60;70.20
4107;DHT22;21906;50.812;7.132;2022-11-20T07:56:59;6.60;70.20
4107;DHT22;21906;50.812;7.132;2022-11-20T07:59:24;6.60;70.30
4107;DHT22;21906;50.812;7.132;2022-11-20T08:01:50;6.60;70.40
4107;DHT22;21906;50.812;7.132;2022-11-20T08:04:16;6.60;70.40
4107;DHT22;21906;50.812;7.132;2022-11-20T08:06:41;6.60;70.50
4107;DHT22;21906;50.812;7.132;2022-11-20T08:09:07;6.60;70.20
4107;DHT22;21906;50.812;7.132;2022-11-20T08:11:33;6.60;70.40
4107;DHT22;21906;50.812;7.132;2022-11-20T08:14:17;6.60;70.40
4107;DHT22;21906;50.812;7.132;2022-11-20T08:16:45;6.70;70.30
4107;DHT22;21906;50.812;7.132;2022-11-20T08:19:12;6.70;70.40
4107;DHT22;21906;50.812;7.132;2022-11-20T08:21:38;6.70;70.40
4107;DHT22;21906;50.812;7.132;2022-11-20T08:24:05;6.80;70.10
4107;DHT22;21906;50.812;7.132;2022-11-20T08:26:31;6.70;70.10
4107;DHT22;21906;50.812;7.132;2022-11-20T08:28:57;6.80;70.00
4107;DHT22;21906;50.812;7.132;2022-11-20T08:31:24;6.70;69.80
4107;DHT22;21906;50.812;7.132;2022-11-20T08:33:51;6.70;70.30
4107;DHT22;21906;50.812;7.132;2022-11-20T08:36:17;6.80;69.90
4107;DHT22;21906;50.812;7.132;2022-11-20T08:38:50;6.90;69.90
4107;DHT22;21906;50.812;7.132;2022-11-20T08:41:16;6.90;70.20
4107;DHT22;21906;50.812;7.132;2022-11-20T08:43:59;7.00;70.30
4107;DHT22;21906;50.812;7.132;2022-11-20T08:46:37;7.10;70.10
4107;DHT22;21906;50.812;7.132;2022-11-20T08:49:07;7.10;69.70
4107;DHT22;21906;50.812;7.132;2022-11-20T08:51:33;7.20;69.20
4107;DHT22;21906;50.812;7.132;2022-11-20T08:53:59;7.20;68.90
4107;DHT22;21906;50.812;7.132;2022-11-20T08:56:25;7.20;68.90
4107;DHT22;21906;50.812;7.132;2022-11-20T08:58:51;7.20;69.10
4107;DHT22;21906;50.812;7.132;2022-11-20T09:01:18;7.20;68.90
4107;DHT22;21906;50.812;7.132;2022-11-20T09:03:44;7.10;69.10
4107;DHT22;21906;50.812;7.132;2022-11-20T09:06:10;7.20;69.10
4107;DHT22;21906;50.812;7.132;2022-11-20T09:08:35;7.20;69.10
4107;DHT22;21906;50.812;7.132;2022-11-20T09:11:04;7.30;69.00
4107;DHT22;21906;50.812;7.132;2022-11-20T09:13:30;7.30;68.70
4107;DHT22;21906;50.812;7.132;2022-11-20T09:15:59;7.30;68.60
4107;DHT22;21906;50.812;7.132;2022-11-20T09:18:26;7.40;68.70
4107;DHT22;21906;50.812;7.132;2022-11-20T09:20:55;7.40;68.80
4107;DHT22;21906;50.812;7.132;2022-11-20T09:23:21;7.50;68.50
4107;DHT22;21906;50.812;7.132;2022-11-20T09:25:47;7.50;68.30
4107;DHT22;21906;50.812;7.132;2022-11-20T09:28:12;7.50;68.70
4107;DHT22;21906;50.812;7.132;2022-11-20T09:30:38;7.50;68.70
4107;DHT22;21906;50.812;7.132;2022-11-20T09:33:05;7.50;68.80
4107;DHT22;21906;50.812;7.132;2022-11-20T09:35:31;7.50;68.40
4107;DHT22;21906;50.812;7.132;2022-11-20T09:37:57;7.40;68.00
4107;DHT22;21906;50.812;7.132;2022-11-20T09:40:27;7.50;68.00
4107;DHT22;21906;50.812;7.132;2022-11-20T09:46:39;7.60;68.30
4107;DHT22;21906;50.812;7.132;2022-11-20T09:51:59;7.70;68.00
4107;DHT22;21906;50.812;7.132;2022-11-20T09:54:45;7.80;67.90
4107;DHT22;21906;50.812;7.132;2022-11-20T09:57:15;7.80;67.80
4107;DHT22;21906;50.812;7.132;2022-11-20T09:59:45;7.80;67.90
4107;DHT22;21906;50.812;7.132;2022-11-20T10:04:56;7.90;68.00
4107;DHT22;21906;50.812;7.132;2022-11-20T10:07:39;7.90;67.70
4107;DHT22;21906;50.812;7.132;2022-11-20T10:10:14;7.90;67.80
4107;DHT22;21906;50.812;7.132;2022-11-20T10:22:03;8.10;67.80
4107;DHT22;21906;50.812;7.132;2022-11-20T10:24:35;8.10;67.80
4107;DHT22;21906;50.812;7.132;2022-11-20T10:30:12;8.20;67.20
4107;DHT22;21906;50.812;7.132;2022-11-20T10:32:43;8.20;67.00
4107;DHT22;21906;50.812;7.132;2022-11-20T10:37:44;8.10;68.40
4107;DHT22;21906;50.812;7.132;2022-11-20T10:40:41;8.20;68.20
4107;DHT22;21906;50.812;7.132;2022-11-20T10:43:32;8.30;68.00
4107;DHT22;21906;50.812;7.132;2022-11-20T10:46:00;8.40;67.50
4107;DHT22;21906;50.812;7.132;2022-11-20T10:48:28;8.10;68.50
4107;DHT22;21906;50.812;7.132;2022-11-20T10:56:30;7.60;70.40
4107;DHT22;21906;50.812;7.132;2022-11-20T11:01:44;7.90;69.30
4107;DHT22;21906;50.812;7.132;2022-11-20T11:07:27;7.90;68.10
4107;DHT22;21906;50.812;7.132;2022-11-20T11:09:53;7.90;68.30
4107;DHT22;21906;50.812;7.132;2022-11-20T11:12:21;8.00;68.40
4107;DHT22;21906;50.812;7.132;2022-11-20T11:14:56;8.00;68.00
4107;DHT22;21906;50.812;7.132;2022-11-20T11:22:29;8.00;68.10
4107;DHT22;21906;50.812;7.132;2022-11-20T11:24:55;7.90;68.30
4107;DHT22;21906;50.812;7.132;2022-11-20T11:27:21;8.00;68.30
4107;DHT22;21906;50.812;7.132;2022-11-20T11:29:47;8.20;68.10
4107;DHT22;21906;50.812;7.132;2022-11-20T11:32:19;8.30;68.20
4107;DHT22;21906;50.812;7.132;2022-11-20T11:35:05;8.40;68.20
4107;DHT22;21906;50.812;7.132;2022-11-20T11:37:37;8.40;68.00
4107;DHT22;21906;50.812;7.132;2022-11-20T11:40:05;8.50;67.70
4107;DHT22;21906;50.812;7.132;2022-11-20T11:42:32;8.40;68.10
4107;DHT22;21906;50.812;7.132;2022-11-20T11:45:00;8.40;67.30
4107;DHT22;21906;50.812;7.132;2022-11-20T11:50:14;8.30;68.50
4107;DHT22;21906;50.812;7.132;2022-11-20T11:53:13;8.20;67.80
4107;DHT22;21906;50.812;7.132;2022-11-20T11:56:08;8.30;68.20
4107;DHT22;21906;50.812;7.132;2022-11-20T12:03:38;8.20;67.80
4107;DHT22;21906;50.812;7.132;2022-11-20T12:06:13;7.90;68.60
4107;DHT22;21906;50.812;7.132;2022-11-20T12:08:50;8.00;69.00
4107;DHT22;21906;50.812;7.132;2022-11-20T12:11:29;8.00;69.10
4107;DHT22;21906;50.812;7.132;2022-11-20T12:16:33;7.90;69.00
4107;DHT22;21906;50.812;7.132;2022-11-20T12:19:00;7.90;69.20
4107;DHT22;21906;50.812;7.132;2022-11-20T12:24:41;7.90;69.60
4107;DHT22;21906;50.812;7.132;2022-11-20T12:30:08;8.00;69.80
4107;DHT22;21906;50.812;7.132;2022-11-20T12:43:22;8.40;69.60
4107;DHT22;21906;50.812;7.132;2022-11-20T12:49:16;8.60;69.00
4107;DHT22;21906;50.812;7.132;2022-11-20T12:52:34;8.70;68.70
4107;DHT22;21906;50.812;7.132;2022-11-20T13:00:22;8.80;67.70
4107;DHT22;21906;50.812;7.132;2022-11-20T13:08:24;8.40;69.00
4107;DHT22;21906;50.812;7.132;2022-11-20T13:16:25;8.40;69.00
4107;DHT22;21906;50.812;7.132;2022-11-20T13:18:53;8.50;69.00
4107;DHT22;21906;50.812;7.132;2022-11-20T13:21:22;8.60;69.00
4107;DHT22;21906;50.812;7.132;2022-11-20T13:23:48;8.70;68.40
4107;DHT22;21906;50.812;7.132;2022-11-20T13:26:22;8.70;67.90
4107;DHT22;21906;50.812;7.132;2022-11-20T13:29:16;8.60;68.50
4107;DHT22;21906;50.812;7.132;2022-11-20T13:31:45;8.70;68.60
4107;DHT22;21906;50.812;7.132;2022-11-20T13:34:24;8.80;68.40
4107;DHT22;21906;50.812;7.132;2022-11-20T13:36:54;8.80;68.40
4107;DHT22;21906;50.812;7.132;2022-11-20T13:39:28;8.80;68.30
4107;DHT22;21906;50.812;7.132;2022-11-20T13:42:00;8.80;68.00
4107;DHT22;21906;50.812;7.132;2022-11-20T13:44:48;8.60;68.90
4107;DHT22;21906;50.812;7.132;2022-11-20T13:47:23;8.70;68.80
4107;DHT22;21906;50.812;7.132;2022-11-20T13:49:51;8.70;68.80
4107;DHT22;21906;50.812;7.132;2022-11-20T13:58:24;8.70;68.90
4107;DHT22;21906;50.812;7.132;2022-11-20T14:01:00;8.70;69.00
4107;DHT22;21906;50.812;7.132;2022-11-20T14:03:29;8.60;69.30
4107;DHT22;21906;50.812;7.132;2022-11-20T14:05:59;8.60;69.70
4107;DHT22;21906;50.812;7.132;2022-11-20T14:08:44;8.60;70.00
4107;DHT22;21906;50.812;7.132;2022-11-20T14:11:22;8.60;70.30
4107;DHT22;21906;50.812;7.132;2022-11-20T14:16:25;8.50;70.50
4107;DHT22;21906;50.812;7.132;2022-11-20T14:18:51;8.60;70.40
4107;DHT22;21906;50.812;7.132;2022-11-20T14:21:28;8.60;70.60
4107;DHT22;21906;50.812;7.132;2022-11-20T14:24:05;8.60;70.70
4107;DHT22;21906;50.812;7.132;2022-11-20T14:26:32;8.70;70.60
4107;DHT22;21906;50.812;7.132;2022-11-20T14:28:58;8.60;70.70
4107;DHT22;21906;50.812;7.132;2022-11-20T14:31:26;8.60;70.80
4107;DHT22;21906;50.812;7.132;2022-11-20T14:33:55;8.70;71.00
4107;DHT22;21906;50.812;7.132;2022-11-20T14:36:24;8.70;70.90
4107;DHT22;21906;50.812;7.132;2022-11-20T14:38:51;8.80;71.00
4107;DHT22;21906;50.812;7.132;2022-11-20T14:41:22;8.80;71.00
4107;DHT22;21906;50.812;7.132;2022-11-20T14:43:57;8.70;71.30
4107;DHT22;21906;50.812;7.132;2022-11-20T14:46:24;8.70;71.40
4107;DHT22;21906;50.812;7.132;2022-11-20T14:48:55;8.70;71.50
4107;DHT22;21906;50.812;7.132;2022-11-20T14:52:00;8.70;71.50
4107;DHT22;21906;50.812;7.132;2022-11-20T14:54:26;8.80;71.40
4107;DHT22;21906;50.812;7.132;2022-11-20T14:57:20;8.80;71.40
4107;DHT22;21906;50.812;7.132;2022-11-20T14:59:46;8.90;71.40
4107;DHT22;21906;50.812;7.132;2022-11-20T15:02:12;8.80;71.50
4107;DHT22;21906;50.812;7.132;2022-11-20T15:04:57;8.80;71.50
4107;DHT22;21906;50.812;7.132;2022-11-20T15:07:29;8.90;71.60
4107;DHT22;21906;50.812;7.132;2022-11-20T15:10:10;8.80;71.90
4107;DHT22;21906;50.812;7.132;2022-11-20T15:12:52;8.80;71.90
4107;DHT22;21906;50.812;7.132;2022-11-20T15:18:14;8.80;71.90
4107;DHT22;21906;50.812;7.132;2022-11-20T15:20:41;8.80;72.00
4107;DHT22;21906;50.812;7.132;2022-11-20T15:23:18;8.80;72.10
4107;DHT22;21906;50.812;7.132;2022-11-20T15:25:44;8.90;72.20
4107;DHT22;21906;50.812;7.132;2022-11-20T15:28:23;8.80;72.50
4107;DHT22;21906;50.812;7.132;2022-11-20T15:30:52;8.80;72.90
4107;DHT22;21906;50.812;7.132;2022-11-20T15:33:18;8.80;73.10
4107;DHT22;21906;50.812;7.132;2022-11-20T15:35:44;8.80;73.40
4107;DHT22;21906;50.812;7.132;2022-11-20T15:38:10;8.80;73.90
4107;DHT22;21906;50.812;7.132;2022-11-20T15:40:36;8.80;74.30
4107;DHT22;21906;50.812;7.132;2022-11-20T15:43:02;8.90;74.80
4107;DHT22;21906;50.812;7.132;2022-11-20T15:45:44;8.90;75.30
4107;DHT22;21906;50.812;7.132;2022-11-20T15:48:23;8.90;75.30
4107;DHT22;21906;50.812;7.132;2022-11-20T15:53:40;8.90;76.10
4107;DHT22;21906;50.812;7.132;2022-11-20T15:56:11;8.90;76.30
4107;DHT22;21906;50.812;7.132;2022-11-20T15:58:37;8.90;77.00
4107;DHT22;21906;50.812;7.132;2022-11-20T16:01:02;8.90;77.50
4107;DHT22;21906;50.812;7.132;2022-11-20T16:03:28;8.90;77.60
4107;DHT22;21906;50.812;7.132;2022-11-20T16:05:54;8.90;78.10
4107;DHT22;21906;50.812;7.132;2022-11-20T16:08:19;8.90;78.20
4107;DHT22;21906;50.812;7.132;2022-11-20T16:10:45;8.90;78.10
4107;DHT22;21906;50.812;7.132;2022-11-20T16:13:16;8.90;77.90
4107;DHT22;21906;50.812;7.132;2022-11-20T16:16:03;8.90;77.80
4107;DHT22;21906;50.812;7.132;2022-11-20T16:18:31;8.90;77.80
4107;DHT22;21906;50.812;7.132;2022-11-20T16:20:57;8.90;78.00
4107;DHT22;21906;50.812;7.132;2022-11-20T16:23:23;9.00;77.90
4107;DHT22;21906;50.812;7.132;2022-11-20T16:25:49;8.90;77.90
4107;DHT22;21906;50.812;7.132;2022-11-20T16:28:16;8.90;77.90
4107;DHT22;21906;50.812;7.132;2022-11-20T16:30:41;8.90;77.80
4107;DHT22;21906;50.812;7.132;2022-11-20T16:33:12;9.00;77.70
4107;DHT22;21906;50.812;7.132;2022-11-20T16:35:39;9.00;77.50
4107;DHT22;21906;50.812;7.132;2022-11-20T16:38:04;9.00;77.60
4107;DHT22;21906;50.812;7.132;2022-11-20T16:40:30;9.00;77.60
4107;DHT22;21906;50.812;7.132;2022-11-20T16:42:56;9.00;77.50
4107;DHT22;21906;50.812;7.132;2022-11-20T16:45:23;9.00;77.60
4107;DHT22;21906;50.812;7.132;2022-11-20T16:47:48;9.00;77.70
4107;DHT22;21906;50.812;7.132;2022-11-20T16:50:14;9.00;77.80
4107;DHT22;21906;50.812;7.132;2022-11-20T16:52:40;9.00;77.80
4107;DHT22;21906;50.812;7.132;2022-11-20T16:55:05;9.00;77.90
4107;DHT22;21906;50.812;7.132;2022-11-20T16:57:31;9.00;78.00
4107;DHT22;21906;50.812;7.132;2022-11-20T16:59:58;8.90;78.00
4107;DHT22;21906;50.812;7.132;2022-11-20T17:02:25;8.90;78.00
4107;DHT22;21906;50.812;7.132;2022-11-20T17:04:51;8.90;78.10
4107;DHT22;21906;50.812;7.132;2022-11-20T17:07:17;8.90;78.10
4107;DHT22;21906;50.812;7.132;2022-11-20T17:09:42;9.00;78.10
4107;DHT22;21906;50.812;7.132;2022-11-20T17:12:08;9.00;78.10
4107;DHT22;21906;50.812;7.132;2022-11-20T17:14:34;8.90;78.30
4107;DHT22;21906;50.812;7.132;2022-11-20T17:17:00;8.90;78.40
4107;DHT22;21906;50.812;7.132;2022-11-20T17:19:26;8.90;78.50
4107;DHT22;21906;50.812;7.132;2022-11-20T17:21:51;8.80;78.80
4107;DHT22;21906;50.812;7.132;2022-11-20T17:24:18;8.70;78.90
4107;DHT22;21906;50.812;7.132;2022-11-20T17:26:47;8.70;78.80
4107;DHT22;21906;50.812;7.132;2022-11-20T17:29:17;8.80;78.90
4107;DHT22;21906;50.812;7.132;2022-11-20T17:31:45;8.80;78.80
4107;DHT22;21906;50.812;7.132;2022-11-20T17:34:14;8.80;78.80
4107;DHT22;21906;50.812;7.132;2022-11-20T17:36:40;8.90;78.80
4107;DHT22;21906;50.812;7.132;2022-11-20T17:39:10;8.80;79.10
4107;DHT22;21906;50.812;7.132;2022-11-20T17:41:36;8.90;78.90
4107;DHT22;21906;50.812;7.132;2022-11-20T17:44:01;8.90;79.10
4107;DHT22;21906;50.812;7.132;2022-11-20T17:46:29;8.80;79.20
4107;DHT22;21906;50.812;7.132;2022-11-20T17:48:57;8.70;79.80
4107;DHT22;21906;50.812;7.132;2022-11-20T17:51:25;8.70;79.70
4107;DHT22;21906;50.812;7.132;2022-11-20T17:53:54;8.70;79.70
4107;DHT22;21906;50.812;7.132;2022-11-20T17:56:21;8.70;79.70
4107;DHT22;21906;50.812;7.132;2022-11-20T17:59:06;8.80;79.80
4107;DHT22;21906;50.812;7.132;2022-11-20T18:01:33;8.80;79.90
4107;DHT22;21906;50.812;7.132;2022-11-20T18:03:59;8.90;79.70
4107;DHT22;21906;50.812;7.132;2022-11-20T18:06:26;8.90;79.90
4107;DHT22;21906;50.812;7.132;2022-11-20T18:08:51;8.80;79.70
4107;DHT22;21906;50.812;7.132;2022-11-20T18:11:18;8.80;80.00
4107;DHT22;21906;50.812;7.132;2022-11-20T18:13:46;8.80;80.00